SLRY

Details ICAO SLRY (REY)
Name Reyes
Region Bolivia
Timezone America/La_Paz (UTC-4.0)
Plans Departing 0
Arriving 0
Stats Elevation 935 ft / 285 m (AMSL)
Location -14.322778° -67.391670°
Runways 1
Magnetic Variation 9.171° W
Sunrise 2017-12-18 09:58:29 UTC / 2017-12-18 05:58:29 Local
Sunset 2017-12-18 22:56:46 UTC / 2017-12-18 18:56:46 Local
Advertisement - Login to hide

Runways

ID Width Length Bearing (true) Bearing (mag) Surface Threshold Offset Overrun Length
18 70 ft / 21 m 4,925 ft / 1,501 m 176.00° 185.17° Concrete 0 ft / 0 m 0 ft / 0 m
36 70 ft / 21 m 4,925 ft / 1,501 m 356.00° 5.17° Concrete 0 ft / 0 m 0 ft / 0 m

Map

Weather


0- 5 10 15 20 25 30 35+ Temperature / ° C

Clouds and Precipitation
Forecast for 2017-12-18 12:00 UTC. Updated 2 hours ago

Ground ~20,000 ft ~40,000 ft Winds

METAR

SLRY 181100Z 00000KT 9999 FEW020 BKN080 BKN200 25/24 Q1008

TAF

Not found
Warning: Do not use this data for real-world aviation or navigation. No guarantee of current accuracy is given.